createdAt,value
2023-05-15T00:01:11.705Z,100397.75
2023-05-15T00:03:39.528Z,100399.81
2023-05-15T00:06:08.877Z,100388.06
2023-05-15T00:08:36.544Z,100397.19
2023-05-15T00:11:04.355Z,100383.47
2023-05-15T00:13:32.022Z,100411.25
2023-05-15T00:15:59.846Z,100404.22
2023-05-15T00:18:27.920Z,100382.78
2023-05-15T00:20:55.738Z,100381.41
2023-05-15T00:23:24.950Z,100380.19
2023-05-15T00:25:52.668Z,100381.31
2023-05-15T00:28:20.415Z,100370.84
2023-05-15T00:30:48.133Z,100387.84
2023-05-15T00:33:16.092Z,100387.72
2023-05-15T00:35:43.777Z,100375.28
2023-05-15T00:38:12.709Z,100369.13
2023-05-15T00:40:42.550Z,100393.38
2023-05-15T00:43:11.312Z,100383.56
2023-05-15T00:45:40.601Z,100371.03
2023-05-15T00:48:09.158Z,100377.63
2023-05-15T00:50:37.134Z,100370.88
2023-05-15T00:53:05.150Z,100368.53
2023-05-15T00:55:33.477Z,100375.16
2023-05-15T00:58:02.803Z,100376.00
2023-05-15T01:00:32.248Z,100362.03
2023-05-15T01:03:00.763Z,100361.00
2023-05-15T01:05:29.293Z,100355.19
2023-05-15T01:08:02.770Z,100341.44
2023-05-15T01:10:30.505Z,100358.00
2023-05-15T01:12:58.700Z,100361.81
2023-05-15T01:15:27.772Z,100342.59
2023-05-15T01:18:07.344Z,100358.72
2023-05-15T01:20:45.688Z,100350.66
2023-05-15T01:23:17.279Z,100372.19
2023-05-15T01:26:01.856Z,100361.13
2023-05-15T01:28:33.319Z,100350.03
2023-05-15T01:31:08.958Z,100363.91
2023-05-15T01:33:40.138Z,100373.56
2023-05-15T01:36:13.114Z,100351.75
2023-05-15T01:38:44.120Z,100366.22
2023-05-15T01:41:17.632Z,100348.31
2023-05-15T01:43:47.297Z,100345.44
2023-05-15T01:46:16.391Z,100349.84
2023-05-15T01:48:44.964Z,100352.91
2023-05-15T01:51:14.410Z,100341.22
2023-05-15T01:53:42.159Z,100351.56
2023-05-15T01:56:14.721Z,100347.50
2023-05-15T01:58:43.947Z,100334.53
2023-05-15T02:01:14.470Z,100336.69
2023-05-15T02:03:42.734Z,100348.28
2023-05-15T02:06:10.511Z,100343.31
2023-05-15T02:08:38.250Z,100342.16
2023-05-15T02:11:05.979Z,100344.34
2023-05-15T02:13:35.115Z,100343.44
2023-05-15T02:16:03.197Z,100335.31
2023-05-15T02:18:32.834Z,100335.31
2023-05-15T02:21:02.925Z,100331.22
2023-05-15T02:23:30.661Z,100321.03
2023-05-15T02:26:10.634Z,100324.91
2023-05-15T02:28:44.022Z,100325.63
2023-05-15T02:31:15.807Z,100316.94
2023-05-15T02:33:50.654Z,100319.56
2023-05-15T02:36:22.214Z,100309.22
2023-05-15T02:38:52.471Z,100328.97
2023-05-15T02:41:21.064Z,100334.00
2023-05-15T02:43:52.008Z,100329.31
2023-05-15T02:46:20.139Z,100324.91
2023-05-15T02:48:49.532Z,100331.47
2023-05-15T02:51:17.222Z,100341.28
2023-05-15T02:53:45.351Z,100320.03
2023-05-15T02:56:13.019Z,100320.09
2023-05-15T02:58:41.061Z,100339.59
2023-05-15T03:01:09.136Z,100320.91
2023-05-15T03:03:36.964Z,100342.88
2023-05-15T03:06:06.269Z,100330.66
2023-05-15T03:08:33.972Z,100338.03
2023-05-15T03:11:01.664Z,100335.25
2023-05-15T03:13:29.629Z,100330.13
2023-05-15T03:15:57.575Z,100317.81
2023-05-15T03:18:25.693Z,100328.19
2023-05-15T03:20:53.818Z,100349.28
2023-05-15T03:23:22.891Z,100311.84
2023-05-15T03:25:50.579Z,100308.50
2023-05-15T03:28:18.266Z,100326.56
2023-05-15T03:30:46.017Z,100346.94
2023-05-15T03:33:13.711Z,100324.81
2023-05-15T03:35:41.413Z,100332.78
2023-05-15T03:38:09.159Z,100313.84
2023-05-15T03:40:39.265Z,100330.22
2023-05-15T03:43:07.291Z,100328.44
2023-05-15T03:45:35.324Z,100317.28
2023-05-15T03:48:03.059Z,100323.94
2023-05-15T03:50:30.826Z,100323.31
2023-05-15T03:52:58.598Z,100328.06
2023-05-15T03:55:26.520Z,100317.34
2023-05-15T03:57:56.211Z,100311.94
2023-05-15T04:00:24.555Z,100324.94
2023-05-15T04:03:08.608Z,100322.81
2023-05-15T04:05:36.861Z,100330.59
2023-05-15T04:08:04.797Z,100330.59
2023-05-15T04:10:33.720Z,100321.13
2023-05-15T04:13:02.835Z,100324.69
2023-05-15T04:15:31.050Z,100318.41
2023-05-15T04:17:58.744Z,100321.97
2023-05-15T04:20:26.645Z,100331.09
2023-05-15T04:22:54.506Z,100331.78
2023-05-15T04:25:22.442Z,100317.28
2023-05-15T04:27:50.370Z,100320.00
2023-05-15T04:30:19.546Z,100318.41
2023-05-15T04:32:47.286Z,100307.06
2023-05-15T04:35:15.524Z,100316.31
2023-05-15T04:37:45.717Z,100329.31
2023-05-15T04:40:16.303Z,100327.13
2023-05-15T04:42:44.283Z,100334.72
2023-05-15T04:45:12.199Z,100307.06
2023-05-15T04:47:41.556Z,100317.53
2023-05-15T04:50:10.306Z,100334.16
2023-05-15T04:52:38.004Z,100338.78
2023-05-15T04:55:07.029Z,100335.38
2023-05-15T04:57:34.831Z,100331.81
2023-05-15T05:00:02.560Z,100334.19
2023-05-15T05:02:30.600Z,100346.41
2023-05-15T05:04:59.707Z,100334.56
2023-05-15T05:07:27.402Z,100330.19
2023-05-15T05:09:55.118Z,100335.63
2023-05-15T05:12:22.849Z,100337.03
2023-05-15T05:14:50.576Z,100338.25
2023-05-15T05:17:18.437Z,100333.84
2023-05-15T05:19:46.197Z,100330.34
2023-05-15T05:22:15.422Z,100326.66
2023-05-15T05:24:46.201Z,100337.22
2023-05-15T05:27:14.124Z,100324.97
2023-05-15T05:29:41.793Z,100341.94
2023-05-15T05:32:09.493Z,100330.06
2023-05-15T05:34:37.217Z,100346.47
2023-05-15T05:37:06.322Z,100356.88
2023-05-15T05:39:35.830Z,100347.53
2023-05-15T05:42:03.545Z,100336.28
2023-05-15T05:44:31.247Z,100340.38
2023-05-15T05:46:59.006Z,100344.22
2023-05-15T05:49:35.657Z,100339.56
2023-05-15T05:54:49.988Z,100345.63
2023-05-15T05:57:17.727Z,100321.06
2023-05-15T05:59:45.921Z,100330.44
2023-05-15T06:02:28.925Z,100326.53
2023-05-15T06:04:56.832Z,100332.44
2023-05-15T06:07:25.474Z,100329.97
2023-05-15T06:09:54.527Z,100336.25
2023-05-15T06:12:23.195Z,100352.63
2023-05-15T06:14:50.903Z,100351.75
2023-05-15T06:17:18.835Z,100332.91
2023-05-15T06:19:46.555Z,100336.63
2023-05-15T06:22:14.209Z,100337.81
2023-05-15T06:24:42.296Z,100360.13
2023-05-15T06:27:11.406Z,100367.31
2023-05-15T06:29:39.179Z,100358.06
2023-05-15T06:32:07.324Z,100367.53
2023-05-15T06:34:35.028Z,100360.53
2023-05-15T06:37:03.106Z,100380.09
2023-05-15T06:39:31.046Z,100360.69
2023-05-15T06:42:01.347Z,100360.22
2023-05-15T06:44:31.300Z,100362.84
2023-05-15T06:46:59.279Z,100366.66
2023-05-15T06:49:29.271Z,100372.75
2023-05-15T06:51:56.949Z,100353.72
2023-05-15T06:57:10.138Z,100360.19
2023-05-15T06:59:51.650Z,100367.06
2023-05-15T07:02:19.366Z,100365.19
2023-05-15T07:04:47.076Z,100370.44
2023-05-15T07:07:14.829Z,100356.66
2023-05-15T07:09:42.499Z,100385.19
2023-05-15T07:12:10.639Z,100368.34
2023-05-15T07:14:38.353Z,100372.59
2023-05-15T07:17:07.798Z,100379.00
2023-05-15T07:19:35.615Z,100385.53
2023-05-15T07:22:03.701Z,100368.78
2023-05-15T07:24:31.501Z,100362.56
2023-05-15T07:27:00.134Z,100370.00
2023-05-15T07:29:27.893Z,100387.06
2023-05-15T07:31:55.729Z,100394.44
2023-05-15T07:34:24.986Z,100403.91
2023-05-15T07:36:52.633Z,100403.56
2023-05-15T07:39:20.435Z,100392.19
2023-05-15T07:41:48.205Z,100399.63
2023-05-15T07:44:15.829Z,100399.88
2023-05-15T07:46:43.597Z,100384.63
2023-05-15T07:49:11.398Z,100379.81
2023-05-15T07:51:40.808Z,100381.28
2023-05-15T07:54:08.459Z,100410.22
2023-05-15T07:56:36.505Z,100405.13
2023-05-15T07:59:04.567Z,100386.13
2023-05-15T08:01:32.832Z,100395.56
2023-05-15T08:04:00.898Z,100371.19
2023-05-15T08:06:28.640Z,100395.00
2023-05-15T08:08:57.707Z,100380.75
2023-05-15T08:11:25.351Z,100381.59
2023-05-15T08:13:53.241Z,100378.97
2023-05-15T08:16:21.027Z,100366.28
2023-05-15T08:18:53.161Z,100382.63
2023-05-15T08:21:20.881Z,100376.53
2023-05-15T08:23:48.516Z,100372.97
2023-05-15T08:26:17.530Z,100365.22
2023-05-15T08:28:45.182Z,100354.72
2023-05-15T08:31:12.909Z,100377.22
2023-05-15T08:33:40.609Z,100378.03
2023-05-15T08:36:09.200Z,100381.09
2023-05-15T08:38:46.153Z,100390.09
2023-05-15T08:41:38.874Z,100386.78
2023-05-15T08:44:08.276Z,100368.41
2023-05-15T08:46:36.652Z,100363.94
2023-05-15T08:49:07.909Z,100369.50
2023-05-15T08:51:35.775Z,100355.94
2023-05-15T08:54:03.630Z,100374.34
2023-05-15T08:56:32.724Z,100368.38
2023-05-15T08:59:00.647Z,100367.88
2023-05-15T09:01:29.578Z,100388.47
2023-05-15T09:03:57.295Z,100378.84
2023-05-15T09:06:25.792Z,100355.34
2023-05-15T09:08:56.215Z,100358.81
2023-05-15T09:11:25.515Z,100357.06
2023-05-15T09:13:54.605Z,100378.28
2023-05-15T09:16:22.348Z,100383.06
2023-05-15T09:18:50.958Z,100373.38
2023-05-15T09:21:26.130Z,100374.16
2023-05-15T09:23:54.076Z,100374.28
2023-05-15T09:26:22.161Z,100362.91
2023-05-15T09:28:50.146Z,100371.59
2023-05-15T09:31:21.891Z,100376.31
2023-05-15T09:34:00.309Z,100357.16
2023-05-15T09:36:28.112Z,100354.16
2023-05-15T09:39:00.055Z,100389.63
2023-05-15T09:41:28.962Z,100391.75
2023-05-15T09:43:57.326Z,100367.06
2023-05-15T09:46:27.923Z,100385.16
2023-05-15T09:48:56.323Z,100388.56
2023-05-15T09:51:24.157Z,100380.03
2023-05-15T09:53:53.301Z,100379.56
2023-05-15T09:56:21.888Z,100372.13
2023-05-15T09:58:56.178Z,100370.72
2023-05-15T10:01:25.135Z,100383.91
2023-05-15T10:04:01.169Z,100376.41
2023-05-15T10:06:30.875Z,100397.03
2023-05-15T10:08:58.994Z,100392.06
2023-05-15T10:11:27.252Z,100377.41
2023-05-15T10:13:55.042Z,100394.59
2023-05-15T10:16:23.552Z,100385.38
2023-05-15T10:18:53.090Z,100385.41
2023-05-15T10:21:23.397Z,100382.09
2023-05-15T10:23:52.278Z,100402.00
2023-05-15T10:26:23.438Z,100395.16
2023-05-15T10:28:51.528Z,100362.25
2023-05-15T10:31:20.021Z,100375.03
2023-05-15T10:33:49.110Z,100368.03
2023-05-15T10:36:17.985Z,100373.59
2023-05-15T10:38:47.322Z,100366.56
2023-05-15T10:41:18.024Z,100362.00
2023-05-15T10:43:47.123Z,100353.75
2023-05-15T10:46:15.166Z,100337.75
2023-05-15T10:48:45.641Z,100347.56
2023-05-15T10:51:17.458Z,100345.94
2023-05-15T10:53:45.721Z,100339.28
2023-05-15T10:56:16.525Z,100347.00
2023-05-15T10:58:48.665Z,100339.69
2023-05-15T11:01:27.043Z,100345.66
2023-05-15T11:04:07.614Z,100346.34
2023-05-15T11:06:36.100Z,100330.44
2023-05-15T11:09:35.343Z,100341.88
2023-05-15T11:12:05.638Z,100339.69
2023-05-15T11:14:34.926Z,100314.47
2023-05-15T11:17:05.200Z,100309.25
2023-05-15T11:19:36.165Z,100327.63
2023-05-15T11:22:17.019Z,100314.25
2023-05-15T11:24:53.505Z,100310.53
2023-05-15T11:27:23.855Z,100335.44
2023-05-15T11:30:09.212Z,100317.09
2023-05-15T11:32:50.325Z,100316.78
2023-05-15T11:35:23.599Z,100316.16
2023-05-15T11:37:54.010Z,100300.53
2023-05-15T11:40:24.025Z,100305.03
2023-05-15T11:43:03.750Z,100314.59
2023-05-15T11:45:32.521Z,100296.16
2023-05-15T11:48:03.634Z,100298.50
2023-05-15T11:50:32.674Z,100289.97
2023-05-15T11:53:04.051Z,100295.84
2023-05-15T11:55:33.203Z,100286.56
2023-05-15T11:58:02.448Z,100296.69
2023-05-15T12:00:30.146Z,100279.53
2023-05-15T12:02:58.127Z,100278.91
2023-05-15T12:05:25.878Z,100274.81
2023-05-15T12:07:53.679Z,100287.13
2023-05-15T12:10:21.557Z,100277.13
2023-05-15T12:12:50.331Z,100278.59
2023-05-15T12:15:19.624Z,100286.94
2023-05-15T12:17:47.364Z,100287.88
2023-05-15T12:20:18.222Z,100270.66
2023-05-15T12:22:46.074Z,100266.38
2023-05-15T12:25:16.020Z,100280.97
2023-05-15T12:27:43.885Z,100272.63
2023-05-15T12:30:12.445Z,100267.00
2023-05-15T12:32:41.896Z,100267.00
2023-05-15T12:35:11.764Z,100276.22
2023-05-15T12:37:40.205Z,100272.13
2023-05-15T12:40:10.378Z,100261.53
2023-05-15T12:42:42.664Z,100269.31
2023-05-15T12:45:14.586Z,100279.34
2023-05-15T12:47:44.908Z,100273.91
2023-05-15T12:50:14.963Z,100266.72
2023-05-15T12:52:47.859Z,100268.44
2023-05-15T12:55:18.931Z,100244.63
2023-05-15T12:57:47.260Z,100260.03
2023-05-15T13:00:16.108Z,100257.91
2023-05-15T13:02:46.553Z,100271.28
2023-05-15T13:05:14.824Z,100250.03
2023-05-15T13:07:44.737Z,100245.38
2023-05-15T13:10:13.443Z,100253.78
2023-05-15T13:12:43.925Z,100259.50
2023-05-15T13:15:24.161Z,100260.03
2023-05-15T13:17:57.546Z,100246.19
2023-05-15T13:20:25.643Z,100252.66
2023-05-15T13:22:53.419Z,100258.09
2023-05-15T13:25:21.929Z,100253.13
2023-05-15T13:27:50.059Z,100249.47
2023-05-15T13:30:18.953Z,100256.94
2023-05-15T13:32:46.779Z,100245.31
2023-05-15T13:35:25.715Z,100243.41
2023-05-15T13:40:28.613Z,100258.97
2023-05-15T13:45:37.927Z,100251.19
2023-05-15T13:48:06.216Z,100241.84
2023-05-15T13:50:35.848Z,100237.78
2023-05-15T13:53:03.696Z,100246.38
2023-05-15T13:55:31.519Z,100244.44
2023-05-15T13:57:59.608Z,100239.91
2023-05-15T14:00:27.410Z,100222.50
2023-05-15T14:02:55.352Z,100233.44
2023-05-15T14:05:23.069Z,100243.25
2023-05-15T14:07:52.122Z,100246.41
2023-05-15T14:10:19.894Z,100251.06
2023-05-15T14:12:47.519Z,100260.44
2023-05-15T14:15:15.331Z,100252.50
2023-05-15T14:17:43.196Z,100214.31
2023-05-15T14:20:12.720Z,100242.78
2023-05-15T14:22:49.459Z,100240.59
2023-05-15T14:25:18.625Z,100250.25
2023-05-15T14:27:46.389Z,100248.75
2023-05-15T14:30:14.610Z,100244.63
2023-05-15T14:32:45.283Z,100233.41
2023-05-15T14:35:13.169Z,100223.16
2023-05-15T14:37:40.867Z,100235.47
2023-05-15T14:40:10.240Z,100249.88
2023-05-15T14:42:40.443Z,100240.63
2023-05-15T14:45:09.210Z,100257.84
2023-05-15T14:47:36.859Z,100226.56
2023-05-15T14:50:05.162Z,100225.97
2023-05-15T14:52:32.835Z,100241.16
2023-05-15T14:55:09.366Z,100255.53
2023-05-15T14:57:39.593Z,100221.19
2023-05-15T15:00:09.571Z,100258.16
2023-05-15T15:02:37.409Z,100257.91
2023-05-15T15:05:05.752Z,100244.47
2023-05-15T15:07:59.509Z,100256.16
2023-05-15T15:10:27.627Z,100250.50
2023-05-15T15:12:56.913Z,100232.69
2023-05-15T15:15:24.678Z,100234.22
2023-05-15T15:17:52.697Z,100238.19
2023-05-15T15:20:21.826Z,100240.69
2023-05-15T15:22:49.642Z,100251.19
2023-05-15T15:25:17.422Z,100230.88
2023-05-15T15:27:46.508Z,100245.84
2023-05-15T15:30:16.652Z,100239.56
2023-05-15T15:32:47.456Z,100231.25
2023-05-15T15:35:15.162Z,100228.16
2023-05-15T15:37:42.960Z,100233.22
2023-05-15T15:40:12.025Z,100230.50
2023-05-15T15:42:39.794Z,100238.88
2023-05-15T15:45:08.583Z,100246.97
2023-05-15T15:47:37.997Z,100220.22
2023-05-15T15:50:06.406Z,100233.22
2023-05-15T15:52:34.048Z,100233.81
2023-05-15T15:55:02.067Z,100231.19
2023-05-15T15:57:31.225Z,100246.63
2023-05-15T15:59:59.060Z,100251.97
2023-05-15T16:02:26.841Z,100247.66
2023-05-15T16:04:55.931Z,100232.50
2023-05-15T16:07:23.830Z,100241.06
2023-05-15T16:10:00.433Z,100254.69
2023-05-15T16:12:39.832Z,100251.09
2023-05-15T16:17:42.841Z,100268.31
2023-05-15T16:20:12.509Z,100258.47
2023-05-15T16:22:41.765Z,100281.72
2023-05-15T16:25:10.167Z,100270.03
2023-05-15T16:27:38.146Z,100264.59
2023-05-15T16:30:06.614Z,100280.50
2023-05-15T16:32:34.809Z,100264.78
2023-05-15T16:35:02.727Z,100261.25
2023-05-15T16:37:32.636Z,100274.78
2023-05-15T16:40:00.772Z,100273.13
2023-05-15T16:42:28.480Z,100276.28
2023-05-15T16:44:56.186Z,100280.38
2023-05-15T16:47:24.194Z,100275.81
2023-05-15T16:49:51.931Z,100289.53
2023-05-15T16:52:19.607Z,100289.53
2023-05-15T16:54:49.029Z,100299.25
2023-05-15T16:57:17.046Z,100306.38
2023-05-15T16:59:44.864Z,100304.53
2023-05-15T17:02:12.668Z,100307.94
2023-05-15T17:04:40.354Z,100276.72
2023-05-15T17:07:09.191Z,100310.41
2023-05-15T17:09:38.401Z,100314.63
2023-05-15T17:12:08.481Z,100314.88
2023-05-15T17:14:36.154Z,100314.28
2023-05-15T17:17:03.846Z,100318.03
2023-05-15T17:19:32.262Z,100314.97
2023-05-15T17:21:59.917Z,100306.16
2023-05-15T17:24:35.541Z,100320.75
2023-05-15T17:27:18.351Z,100320.75
2023-05-15T17:29:46.838Z,100339.88
2023-05-15T17:32:15.838Z,100313.38
2023-05-15T17:34:43.671Z,100342.09
2023-05-15T17:37:11.690Z,100322.78
2023-05-15T17:39:39.418Z,100333.56
2023-05-15T17:42:07.102Z,100316.63
2023-05-15T17:44:36.323Z,100342.31
2023-05-15T17:47:04.205Z,100333.09
2023-05-15T17:49:34.381Z,100332.78
2023-05-15T17:52:02.098Z,100335.91
2023-05-15T17:54:29.978Z,100346.16
2023-05-15T17:56:57.813Z,100353.25
2023-05-15T17:59:25.523Z,100351.44
2023-05-15T18:01:55.035Z,100365.34
2023-05-15T18:04:23.052Z,100352.44
2023-05-15T18:06:50.809Z,100370.44
2023-05-15T18:09:23.121Z,100368.78
2023-05-15T18:11:51.788Z,100358.94
2023-05-15T18:14:19.449Z,100368.44
2023-05-15T18:16:47.133Z,100359.31
2023-05-15T18:19:16.522Z,100366.53
2023-05-15T18:21:44.699Z,100368.47
2023-05-15T18:24:12.611Z,100393.38
2023-05-15T18:26:40.381Z,100391.34
2023-05-15T18:29:08.281Z,100384.78
2023-05-15T18:31:36.310Z,100387.81
2023-05-15T18:34:04.135Z,100381.38
2023-05-15T18:36:33.399Z,100399.81
2023-05-15T18:39:02.465Z,100403.81
2023-05-15T18:41:30.794Z,100388.50
2023-05-15T18:43:58.661Z,100400.69
2023-05-15T18:46:28.409Z,100407.13
2023-05-15T18:48:56.394Z,100414.94
2023-05-15T18:51:24.557Z,100403.31
2023-05-15T18:53:53.729Z,100416.69
2023-05-15T18:56:21.663Z,100417.25
2023-05-15T18:58:49.451Z,100408.25
2023-05-15T19:01:17.462Z,100405.56
2023-05-15T19:03:45.443Z,100425.84
2023-05-15T19:06:19.788Z,100417.66
2023-05-15T19:08:48.503Z,100426.97
2023-05-15T19:11:17.961Z,100432.41
2023-05-15T19:13:45.696Z,100423.44
2023-05-15T19:16:13.522Z,100447.63
2023-05-15T19:18:41.723Z,100449.00
2023-05-15T19:21:09.558Z,100452.97
2023-05-15T19:23:37.502Z,100453.88
2023-05-15T19:26:05.207Z,100448.16
2023-05-15T19:28:34.613Z,100448.09
2023-05-15T19:31:02.514Z,100449.72
2023-05-15T19:33:30.210Z,100468.69
2023-05-15T19:35:57.965Z,100459.53
2023-05-15T19:38:25.698Z,100474.84
2023-05-15T19:40:53.385Z,100472.66
2023-05-15T19:43:21.026Z,100468.00
2023-05-15T19:45:50.348Z,100465.59
2023-05-15T19:48:18.035Z,100469.84
2023-05-15T19:50:46.366Z,100470.47
2023-05-15T19:53:14.048Z,100485.16
2023-05-15T19:55:41.779Z,100478.56
2023-05-15T19:58:09.965Z,100473.19
2023-05-15T20:00:37.671Z,100473.75
2023-05-15T20:03:06.900Z,100484.88
2023-05-15T20:05:34.598Z,100481.59
2023-05-15T20:08:02.379Z,100481.34
2023-05-15T20:10:30.127Z,100493.31
2023-05-15T20:12:57.866Z,100479.97
2023-05-15T20:15:29.255Z,100496.28
2023-05-15T20:17:57.120Z,100499.28
2023-05-15T20:20:27.031Z,100496.53
2023-05-15T20:22:54.932Z,100494.63
2023-05-15T20:25:24.218Z,100514.22
2023-05-15T20:27:56.406Z,100515.53
2023-05-15T20:30:24.536Z,100496.34
2023-05-15T20:32:52.824Z,100527.75
2023-05-15T20:35:20.877Z,100513.88
2023-05-15T20:37:49.977Z,100505.63
2023-05-15T20:42:59.357Z,100528.09
2023-05-15T20:45:27.201Z,100526.91
2023-05-15T20:47:55.018Z,100530.81
2023-05-15T20:50:22.890Z,100533.78
2023-05-15T20:52:52.014Z,100531.06
2023-05-15T20:55:21.600Z,100531.34
2023-05-15T20:57:50.330Z,100523.13
2023-05-15T21:00:19.087Z,100530.28
2023-05-15T21:02:47.385Z,100518.25
2023-05-15T21:05:27.191Z,100538.38
2023-05-15T21:07:56.439Z,100545.09
2023-05-15T21:10:24.390Z,100529.16
2023-05-15T21:12:52.383Z,100544.91
2023-05-15T21:15:20.083Z,100544.50
2023-05-15T21:17:47.821Z,100536.50
2023-05-15T21:20:15.530Z,100531.81
2023-05-15T21:22:43.242Z,100545.81
2023-05-15T21:25:12.589Z,100542.03
2023-05-15T21:27:40.554Z,100524.81
2023-05-15T21:30:09.765Z,100556.28
2023-05-15T21:32:37.446Z,100538.91
2023-05-15T21:35:05.641Z,100549.25
2023-05-15T21:37:33.289Z,100548.50
2023-05-15T21:40:02.015Z,100551.59
2023-05-15T21:42:31.898Z,100545.44
2023-05-15T21:45:00.200Z,100537.59
2023-05-15T21:47:28.180Z,100552.50
2023-05-15T21:49:55.850Z,100557.38
2023-05-15T21:52:23.557Z,100576.69
2023-05-15T21:54:51.276Z,100587.59
2023-05-15T21:57:19.043Z,100580.03
2023-05-15T21:59:48.500Z,100575.38
2023-05-15T22:02:16.411Z,100570.84
2023-05-15T22:04:44.287Z,100586.75
2023-05-15T22:07:14.393Z,100570.47
2023-05-15T22:09:42.362Z,100575.38
2023-05-15T22:12:10.158Z,100589.34
2023-05-15T22:14:41.798Z,100586.06
2023-05-15T22:17:17.287Z,100590.69
2023-05-15T22:19:45.804Z,100576.81
2023-05-15T22:22:13.824Z,100592.69
2023-05-15T22:24:41.908Z,100585.81
2023-05-15T22:27:09.584Z,100587.66
2023-05-15T22:29:37.319Z,100583.09
2023-05-15T22:32:05.490Z,100599.91
2023-05-15T22:34:34.744Z,100594.66
2023-05-15T22:37:02.575Z,100595.13
2023-05-15T22:39:30.399Z,100595.22
2023-05-15T22:41:58.083Z,100598.00
2023-05-15T22:44:25.780Z,100581.81
2023-05-15T22:46:53.502Z,100585.84
2023-05-15T22:49:25.384Z,100607.69
2023-05-15T22:51:54.900Z,100610.00
2023-05-15T22:54:23.568Z,100584.75
2023-05-15T22:56:52.172Z,100597.13
2023-05-15T22:59:20.093Z,100606.53
2023-05-15T23:01:49.166Z,100611.66
2023-05-15T23:07:01.155Z,100612.00
2023-05-15T23:09:28.835Z,100620.69
2023-05-15T23:11:56.490Z,100615.41
2023-05-15T23:14:24.309Z,100602.16
2023-05-15T23:16:52.166Z,100613.16
2023-05-15T23:19:19.949Z,100616.13
2023-05-15T23:21:47.776Z,100617.75
2023-05-15T23:24:17.430Z,100616.13
2023-05-15T23:26:47.206Z,100620.25
2023-05-15T23:29:14.875Z,100607.91
2023-05-15T23:31:43.134Z,100629.22
2023-05-15T23:34:11.214Z,100610.91
2023-05-15T23:36:38.923Z,100614.50
2023-05-15T23:39:06.597Z,100624.44
2023-05-15T23:41:36.473Z,100626.38
2023-05-15T23:44:04.401Z,100613.50
2023-05-15T23:46:32.169Z,100609.78
2023-05-15T23:48:59.905Z,100616.91
2023-05-15T23:51:27.618Z,100611.56
2023-05-15T23:53:55.287Z,100620.06
2023-05-15T23:56:23.797Z,100621.38
2023-05-15T23:58:52.863Z,100627.00
